Time;durP1;ratioP1;P1;durP2;ratioP2;P2;SDS_P1;SDS_P2;PMS_P1;PMS_P2;Temp;Humidity;BMP_temperature;BMP_pressure;BME280_temperature;BME280_humidity;BME280_pressure;Samples;Min_cycle;Max_cycle;Signal;HPM_P1;HPM_P2
2021/03/11 00:00:06;;;;;;;28.38;14.30;;;;;;;8.01;97.34;99974.28;5107412;27;20039;-72
2021/03/11 00:02:37;;;;;;;29.65;14.82;;;;;;;8.05;96.43;99959.75;5081441;27;20068;-72
2021/03/11 00:05:07;;;;;;;26.30;13.48;;;;;;;7.96;97.48;99965.69;5099979;27;20062;-73
2021/03/11 00:07:32;;;;;;;32.30;14.13;;;;;;;7.92;98.54;99949.97;5096375;27;20030;-72
2021/03/11 00:09:58;;;;;;;28.75;14.52;;;;;;;8.00;99.51;99950.34;5108568;27;20540;-72
2021/03/11 00:12:23;;;;;;;37.15;15.88;;;;;;;7.96;99.28;99946.97;5100517;27;20118;-72
2021/03/11 00:14:49;;;;;;;29.25;13.85;;;;;;;7.94;100.00;99948.91;5113375;27;20027;-74
2021/03/11 00:17:14;;;;;;;26.90;13.95;;;;;;;7.90;100.00;99946.56;5090830;27;20031;-72
2021/03/11 00:19:40;;;;;;;28.55;13.32;;;;;;;7.88;100.00;99948.47;5059701;28;20193;-72
2021/03/11 00:22:05;;;;;;;30.45;13.63;;;;;;;7.83;100.00;99935.41;5075263;27;20039;-72
2021/03/11 00:24:31;;;;;;;27.58;13.57;;;;;;;7.84;100.00;99942.44;5084970;27;20040;-72
2021/03/11 00:26:56;;;;;;;27.23;12.80;;;;;;;7.78;100.00;99932.16;5092055;27;20024;-72
2021/03/11 00:29:22;;;;;;;27.63;13.45;;;;;;;7.85;100.00;99940.63;5093414;28;20035;-72
2021/03/11 00:31:47;;;;;;;31.45;14.05;;;;;;;7.95;100.00;99926.59;5091676;27;20059;-72
2021/03/11 00:34:13;;;;;;;29.30;13.20;;;;;;;7.95;99.86;99926.59;5099831;27;20082;-72
2021/03/11 00:36:38;;;;;;;26.45;11.90;;;;;;;7.99;98.82;99917.41;5076668;28;20654;-72
2021/03/11 00:39:05;;;;;;;27.30;12.52;;;;;;;8.03;98.79;99913.56;5094751;27;20023;-73
2021/03/11 00:41:31;;;;;;;25.38;11.82;;;;;;;8.07;99.05;99920.44;5088393;28;20075;-72
2021/03/11 00:43:56;;;;;;;27.27;11.73;;;;;;;8.19;97.94;99915.22;5096498;28;20110;-72
2021/03/11 00:46:22;;;;;;;25.77;11.43;;;;;;;8.19;97.82;99902.72;5103962;28;20020;-72
2021/03/11 00:48:48;;;;;;;25.33;11.45;;;;;;;8.20;98.44;99898.22;5102832;28;20032;-72
2021/03/11 00:51:14;;;;;;;21.48;10.73;;;;;;;8.24;98.57;99905.06;5101981;27;20493;-73
2021/03/11 00:53:40;;;;;;;21.90;10.50;;;;;;;8.19;99.17;99894.69;5101750;28;20035;-72
2021/03/11 00:56:06;;;;;;;24.73;10.45;;;;;;;8.17;99.53;99885.91;5106822;27;20028;-72
2021/03/11 00:58:31;;;;;;;23.23;11.10;;;;;;;8.17;99.39;99879.72;5099260;27;20031;-72
2021/03/11 01:00:57;;;;;;;25.73;11.75;;;;;;;8.19;99.11;99873.31;5099312;28;20076;-72
2021/03/11 01:03:41;;;;;;;21.00;10.02;;;;;;;8.19;98.79;99873.31;5099802;28;20446;-72
2021/03/11 01:06:07;;;;;;;20.17;10.13;;;;;;;8.13;100.00;99855.88;5096825;28;20482;-71
2021/03/11 01:08:41;;;;;;;25.83;11.13;;;;;;;8.18;100.00;99849.34;5102435;27;20032;-74
2021/03/11 01:11:07;;;;;;;21.63;10.20;;;;;;;8.15;100.00;99844.22;5106662;28;20023;-73
2021/03/11 01:13:33;;;;;;;21.38;10.15;;;;;;;8.12;99.07;99843.47;5103928;27;20436;-71
2021/03/11 01:15:58;;;;;;;20.55;9.32;;;;;;;8.20;99.62;99839.41;5102115;28;20521;-72
2021/03/11 01:18:24;;;;;;;25.23;10.48;;;;;;;8.26;99.50;99820.28;5103384;28;20030;-73
2021/03/11 01:20:50;;;;;;;19.02;9.15;;;;;;;8.19;98.47;99825.19;5100037;28;20119;-73
2021/03/11 01:23:16;;;;;;;19.55;9.18;;;;;;;8.19;99.31;99813.66;5089264;28;20118;-73
2021/03/11 01:25:41;;;;;;;20.30;8.85;;;;;;;8.19;99.69;99817.19;5084406;28;20146;-73
2021/03/11 01:28:07;;;;;;;22.23;10.50;;;;;;;8.23;98.42;99805.28;5094193;28;20028;-72
2021/03/11 01:30:32;;;;;;;17.75;8.90;;;;;;;8.26;98.46;99801.56;5100965;27;20168;-74
2021/03/11 01:32:57;;;;;;;16.70;9.07;;;;;;;8.22;98.72;99794.69;5097252;27;20055;-72
2021/03/11 01:35:23;;;;;;;18.50;9.07;;;;;;;8.30;97.92;99800.38;5093628;27;20034;-74
2021/03/11 01:37:48;;;;;;;19.88;9.55;;;;;;;8.37;98.33;99783.00;5100500;27;20039;-73
2021/03/11 01:40:14;;;;;;;17.80;9.27;;;;;;;8.33;98.42;99784.19;5092528;27;20116;-71
2021/03/11 01:42:40;;;;;;;15.77;7.60;;;;;;;8.34;98.47;99775.16;5099963;28;20046;-71
2021/03/11 01:45:07;;;;;;;17.17;8.48;;;;;;;8.37;98.09;99774.97;5106872;27;20031;-72
2021/03/11 01:47:32;;;;;;;20.73;9.10;;;;;;;8.39;97.92;99768.53;5106302;27;20042;-71
2021/03/11 01:49:58;;;;;;;16.33;8.05;;;;;;;8.45;98.58;99753.91;5092549;28;20044;-71
2021/03/11 01:52:23;;;;;;;18.63;7.53;;;;;;;8.49;97.35;99760.72;5106257;27;20032;-71
2021/03/11 01:54:49;;;;;;;16.52;6.95;;;;;;;8.45;97.73;99741.38;5106815;27;20062;-71
2021/03/11 01:57:15;;;;;;;18.73;8.13;;;;;;;8.50;97.99;99749.94;5109672;27;20231;-71
2021/03/11 01:59:40;;;;;;;15.00;7.57;;;;;;;8.49;97.55;99747.34;5111777;27;20031;-70
2021/03/11 02:02:06;;;;;;;18.38;8.27;;;;;;;8.49;97.64;99726.81;5085992;28;20470;-70
2021/03/11 02:04:32;;;;;;;14.70;6.70;;;;;;;8.46;97.79;99719.00;5090866;28;20036;-71
2021/03/11 02:06:57;;;;;;;13.60;6.53;;;;;;;8.49;97.85;99709.91;5086364;27;20502;-71
2021/03/11 02:09:23;;;;;;;18.08;8.15;;;;;;;8.55;97.72;99698.78;5098694;27;20409;-71
2021/03/11 02:12:25;;;;;;;13.43;6.93;;;;;;;8.50;98.07;99691.09;5103612;27;20431;-71
2021/03/11 02:15:04;;;;;;;15.00;6.50;;;;;;;8.51;98.30;99676.75;5085704;28;20031;-71
2021/03/11 02:17:34;;;;;;;16.65;7.10;;;;;;;8.59;97.26;99657.47;5095397;27;20100;-72
2021/03/11 02:20:09;;;;;;;12.55;6.10;;;;;;;8.56;97.02;99663.06;5103623;28;20024;-71
2021/03/11 02:22:47;;;;;;;10.90;5.60;;;;;;;8.57;98.12;99646.03;5107565;28;20444;-71
2021/03/11 02:25:23;;;;;;;14.65;6.30;;;;;;;8.62;97.84;99657.25;5104915;27;20056;-72
2021/03/11 02:27:57;;;;;;;10.77;5.57;;;;;;;8.65;97.06;99646.31;5107414;27;20496;-71
2021/03/11 02:30:24;;;;;;;9.98;5.40;;;;;;;8.63;98.03;99640.25;5098284;28;20035;-71
2021/03/11 02:32:50;;;;;;;11.25;5.45;;;;;;;8.69;97.42;99620.22;5100378;28;20028;-71
2021/03/11 02:35:16;;;;;;;11.02;6.00;;;;;;;8.67;97.18;99625.66;5098866;28;20028;-71
2021/03/11 02:37:46;;;;;;;14.88;5.78;;;;;;;8.66;96.89;99621.28;5110964;27;20109;-71
2021/03/11 02:40:33;;;;;;;10.00;4.90;;;;;;;8.66;97.52;99615.94;5103480;28;20566;-71
2021/03/11 02:43:02;;;;;;;9.60;4.43;;;;;;;8.65;97.32;99608.88;5100414;28;20515;-71
2021/03/11 02:45:31;;;;;;;9.13;5.07;;;;;;;8.69;97.50;99606.84;5102153;28;20596;-71
2021/03/11 02:48:00;;;;;;;8.98;5.00;;;;;;;8.75;96.97;99598.34;5099191;28;20125;-72
2021/03/11 02:50:29;;;;;;;8.70;4.63;;;;;;;8.67;96.89;99600.75;5097236;28;20028;-72
2021/03/11 02:52:55;;;;;;;8.88;4.57;;;;;;;8.71;96.68;99603.06;5100501;28;20216;-70
2021/03/11 02:55:28;;;;;;;8.15;4.43;;;;;;;8.77;96.71;99597.25;5105657;28;20408;-72
2021/03/11 02:57:55;;;;;;;8.70;4.40;;;;;;;8.81;96.82;99598.75;5086239;28;20039;-71
2021/03/11 03:00:22;;;;;;;8.35;4.55;;;;;;;8.74;97.00;99591.28;5096321;28;20110;-71
2021/03/11 03:02:49;;;;;;;7.22;3.88;;;;;;;8.72;97.55;99571.81;5097837;28;20036;-71
2021/03/11 03:05:18;;;;;;;8.18;4.43;;;;;;;8.79;97.32;99557.88;5101832;28;20027;-71
2021/03/11 03:07:46;;;;;;;8.65;4.38;;;;;;;8.74;98.09;99556.50;5105868;28;20054;-72
2021/03/11 03:10:16;;;;;;;7.72;4.43;;;;;;;8.79;98.30;99552.53;5096688;28;20028;-71
2021/03/11 03:12:42;;;;;;;7.45;4.03;;;;;;;8.75;98.73;99560.91;5102197;28;20056;-71
2021/03/11 03:15:08;;;;;;;7.93;4.50;;;;;;;8.74;99.35;99564.53;5098387;28;20063;-72
2021/03/11 03:17:34;;;;;;;7.68;4.20;;;;;;;8.77;99.75;99557.13;5098174;27;20031;-71
2021/03/11 03:20:06;;;;;;;6.72;4.05;;;;;;;8.78;98.58;99569.53;5108294;27;20482;-71
2021/03/11 03:22:31;;;;;;;8.10;4.07;;;;;;;8.78;99.47;99561.50;5105912;27;20035;-71
2021/03/11 03:24:57;;;;;;;10.50;4.80;;;;;;;8.73;100.00;99558.34;5103836;28;20050;-71
2021/03/11 03:27:22;;;;;;;8.35;4.70;;;;;;;8.87;99.45;99539.44;5099713;28;20515;-71
2021/03/11 03:29:49;;;;;;;8.07;4.38;;;;;;;8.86;100.00;99559.13;5109418;27;20039;-71
2021/03/11 03:32:14;;;;;;;6.50;4.10;;;;;;;8.81;100.00;99550.59;5097425;28;20111;-71
2021/03/11 03:34:40;;;;;;;9.70;4.55;;;;;;;8.84;100.00;99539.66;5107966;28;20360;-72
2021/03/11 03:37:06;;;;;;;10.07;5.30;;;;;;;8.80;100.00;99532.81;5097741;27;20028;-71
2021/03/11 03:39:31;;;;;;;11.98;5.53;;;;;;;8.84;100.00;99528.94;5105734;27;20031;-72
2021/03/11 03:41:58;;;;;;;8.32;4.68;;;;;;;8.81;100.00;99528.34;5106077;28;20032;-71
2021/03/11 03:44:27;;;;;;;9.43;5.80;;;;;;;8.84;100.00;99531.63;5094742;28;20062;-72
2021/03/11 03:46:54;;;;;;;14.52;6.38;;;;;;;8.84;100.00;99523.59;5111016;27;20475;-71
2021/03/11 03:49:21;;;;;;;11.30;5.78;;;;;;;8.80;100.00;99508.75;5084979;28;20023;-72
2021/03/11 03:51:49;;;;;;;11.95;6.20;;;;;;;8.73;100.00;99510.19;5088049;28;20073;-71
2021/03/11 03:54:36;;;;;;;9.50;5.35;;;;;;;8.73;100.00;99504.84;5100956;28;20063;-71
2021/03/11 03:57:06;;;;;;;10.30;5.93;;;;;;;8.77;100.00;99492.06;5109429;27;20110;-72
2021/03/11 03:59:37;;;;;;;10.93;5.45;;;;;;;8.80;100.00;99476.66;5091968;28;20034;-71
2021/03/11 04:02:04;;;;;;;12.57;5.72;;;;;;;8.77;100.00;99492.06;5088105;28;20031;-71
2021/03/11 04:04:33;;;;;;;11.13;5.85;;;;;;;8.78;100.00;99475.03;5099291;28;20035;-71
2021/03/11 04:07:01;;;;;;;13.45;7.22;;;;;;;8.82;100.00;99461.34;5097146;28;20024;-70
2021/03/11 04:09:28;;;;;;;13.82;7.18;;;;;;;8.86;100.00;99486.88;5100438;28;20189;-71
2021/03/11 04:11:55;;;;;;;10.63;6.32;;;;;;;8.79;100.00;99450.00;5099980;27;20050;-71
2021/03/11 04:14:22;;;;;;;13.25;6.75;;;;;;;8.89;100.00;99467.91;5095822;28;20084;-71
2021/03/11 04:16:48;;;;;;;12.68;5.05;;;;;;;8.82;100.00;99471.19;5100522;28;20032;-72
2021/03/11 04:19:15;;;;;;;9.45;5.50;;;;;;;8.91;100.00;99476.66;5103696;28;20028;-71
2021/03/11 04:21:42;;;;;;;12.85;5.55;;;;;;;8.92;100.00;99456.13;5103201;28;20177;-71
2021/03/11 04:24:09;;;;;;;10.05;5.88;;;;;;;8.85;100.00;99442.34;5093793;28;20024;-71
2021/03/11 04:26:36;;;;;;;12.82;5.97;;;;;;;9.04;100.00;99468.53;5089367;28;20181;-72
2021/03/11 04:29:02;;;;;;;10.80;5.53;;;;;;;9.07;100.00;99454.09;5106009;27;20095;-71
2021/03/11 04:31:28;;;;;;;9.82;5.32;;;;;;;9.13;100.00;99432.19;5088628;28;20028;-71
2021/03/11 04:33:55;;;;;;;7.68;4.70;;;;;;;9.16;100.00;99426.56;5095958;28;20059;-71
2021/03/11 04:36:21;;;;;;;10.35;6.05;;;;;;;9.23;100.00;99443.88;5092597;28;20031;-71
2021/03/11 04:38:48;;;;;;;8.77;4.88;;;;;;;9.29;100.00;99413.91;5103998;28;20032;-71
2021/03/11 04:41:14;;;;;;;10.00;5.55;;;;;;;9.30;100.00;99410.28;5103059;28;20393;-71
2021/03/11 04:43:41;;;;;;;12.30;5.30;;;;;;;9.34;100.00;99425.09;5106741;28;20036;-71
2021/03/11 04:46:07;;;;;;;8.88;5.03;;;;;;;9.27;100.00;99406.00;5097740;28;20032;-72
2021/03/11 04:48:34;;;;;;;9.45;4.95;;;;;;;9.29;100.00;99412.09;5100817;28;20030;-71
2021/03/11 04:51:01;;;;;;;9.50;5.07;;;;;;;9.37;100.00;99419.53;5108650;27;20031;-72
2021/03/11 04:53:27;;;;;;;8.52;4.95;;;;;;;9.41;100.00;99391.50;5102043;27;20036;-71
2021/03/11 04:55:54;;;;;;;13.13;5.45;;;;;;;9.40;100.00;99405.88;5105630;27;20106;-72
2021/03/11 04:58:20;;;;;;;8.85;5.35;;;;;;;9.39;100.00;99406.84;5099430;27;20028;-72
2021/03/11 05:00:48;;;;;;;9.02;4.65;;;;;;;9.41;100.00;99396.88;5103925;28;20032;-72
2021/03/11 05:03:14;;;;;;;9.10;4.75;;;;;;;9.49;100.00;99386.41;5084332;28;20036;-73
2021/03/11 05:05:41;;;;;;;11.80;5.03;;;;;;;9.58;100.00;99379.44;5101976;28;20032;-71
2021/03/11 05:08:08;;;;;;;11.52;6.38;;;;;;;9.56;100.00;99390.28;5099586;28;20036;-71
2021/03/11 05:10:34;;;;;;;11.27;6.00;;;;;;;9.53;100.00;99376.28;5097600;27;20100;-71
2021/03/11 05:13:00;;;;;;;9.30;5.22;;;;;;;9.49;100.00;99390.91;5104089;27;20081;-71
2021/03/11 05:15:27;;;;;;;10.15;5.55;;;;;;;9.47;100.00;99404.41;5102742;28;20024;-71
2021/03/11 05:17:53;;;;;;;10.20;5.55;;;;;;;9.45;100.00;99401.00;5097992;28;20483;-71
2021/03/11 05:20:19;;;;;;;12.35;5.95;;;;;;;9.44;100.00;99380.56;5103685;27;20685;-72
2021/03/11 05:22:45;;;;;;;11.38;6.45;;;;;;;9.36;100.00;99363.41;5105946;27;20497;-71
2021/03/11 05:25:12;;;;;;;11.57;6.55;;;;;;;9.38;100.00;99340.03;5101110;28;20039;-71
2021/03/11 05:27:39;;;;;;;10.68;5.63;;;;;;;9.39;100.00;99373.84;5110915;27;20042;-71
2021/03/11 05:30:06;;;;;;;12.23;6.40;;;;;;;9.33;100.00;99367.19;5103113;27;20304;-71
2021/03/11 05:32:32;;;;;;;11.77;6.40;;;;;;;9.31;100.00;99361.13;5098159;27;20115;-71
2021/03/11 05:34:57;;;;;;;14.73;6.25;;;;;;;9.31;100.00;99366.47;5105201;27;20106;-71
2021/03/11 05:37:23;;;;;;;11.35;5.85;;;;;;;9.27;100.00;99359.63;5111153;27;20024;-71
2021/03/11 05:39:49;;;;;;;11.48;5.95;;;;;;;9.29;100.00;99352.34;5101917;27;20056;-71
2021/03/11 05:42:18;;;;;;;11.60;6.30;;;;;;;9.27;100.00;99340.91;5094285;27;20035;-72
2021/03/11 05:44:44;;;;;;;8.80;5.38;;;;;;;9.41;100.00;99329.06;5103710;27;20111;-72
2021/03/11 05:47:11;;;;;;;10.98;5.70;;;;;;;9.34;100.00;99318.88;5110996;27;20567;-71
2021/03/11 05:49:39;;;;;;;10.60;5.60;;;;;;;9.34;100.00;99334.06;5098807;28;20028;-72
2021/03/11 05:52:05;;;;;;;10.20;6.43;;;;;;;9.35;100.00;99341.13;5086674;28;20036;-72
2021/03/11 05:54:32;;;;;;;14.40;6.13;;;;;;;9.38;100.00;99324.81;5104061;28;20049;-72
2021/03/11 05:56:58;;;;;;;11.32;5.75;;;;;;;9.37;100.00;99344.56;5105332;28;20024;-71
2021/03/11 05:59:24;;;;;;;9.27;5.25;;;;;;;9.40;100.00;99332.72;5089025;28;20061;-71
2021/03/11 06:01:51;;;;;;;10.13;5.20;;;;;;;9.42;100.00;99334.31;5102568;28;20037;-71
2021/03/11 06:04:17;;;;;;;10.07;5.20;;;;;;;9.54;100.00;99329.78;5091648;28;20039;-72
2021/03/11 06:06:44;;;;;;;9.18;5.22;;;;;;;9.60;100.00;99335.47;5097405;27;20395;-72
2021/03/11 06:09:10;;;;;;;10.30;5.22;;;;;;;9.53;100.00;99336.94;5109671;27;20036;-72
2021/03/11 06:11:38;;;;;;;10.30;5.45;;;;;;;9.60;100.00;99340.84;5113309;27;20482;-71
2021/03/11 06:14:06;;;;;;;8.20;4.63;;;;;;;9.68;100.00;99342.91;5087206;28;20122;-72
2021/03/11 06:16:33;;;;;;;7.75;4.82;;;;;;;9.75;100.00;99328.84;5104700;27;20027;-72
2021/03/11 06:18:59;;;;;;;10.18;5.28;;;;;;;9.70;100.00;99325.69;5096723;27;20085;-72
2021/03/11 06:21:24;;;;;;;9.38;4.82;;;;;;;9.80;100.00;99331.16;5119109;27;20023;-72
2021/03/11 06:23:50;;;;;;;9.88;5.18;;;;;;;9.82;100.00;99312.25;5101051;27;20680;-72
2021/03/11 06:26:16;;;;;;;9.85;5.47;;;;;;;9.88;100.00;99307.22;5104928;27;20111;-72
2021/03/11 06:28:44;;;;;;;12.95;5.63;;;;;;;9.83;100.00;99319.31;5098528;27;20042;-71
2021/03/11 06:31:23;;;;;;;10.18;5.53;;;;;;;9.86;100.00;99321.75;5090714;27;20035;-71
2021/03/11 06:33:50;;;;;;;12.50;4.50;;;;;;;9.89;100.00;99319.66;5080835;28;20028;-72
2021/03/11 06:36:17;;;;;;;10.27;5.40;;;;;;;9.99;100.00;99314.38;5115127;27;20059;-72
2021/03/11 06:38:43;;;;;;;8.90;5.32;;;;;;;10.02;100.00;99314.13;5102500;27;20751;-72
2021/03/11 06:41:08;;;;;;;11.30;5.75;;;;;;;10.06;100.00;99307.53;5100477;27;20074;-72
2021/03/11 06:43:34;;;;;;;9.25;5.20;;;;;;;9.99;100.00;99309.03;5085071;28;20038;-72
2021/03/11 06:46:09;;;;;;;10.43;5.20;;;;;;;10.03;100.00;99295.22;5106151;27;20112;-71
2021/03/11 06:48:35;;;;;;;7.68;4.38;;;;;;;10.16;100.00;99292.38;5100126;28;20028;-72
2021/03/11 06:51:03;;;;;;;12.88;5.25;;;;;;;10.13;100.00;99295.28;5103422;27;20031;-72
2021/03/11 06:53:30;;;;;;;11.45;5.43;;;;;;;10.04;100.00;99280.00;5109398;27;20020;-72
2021/03/11 06:56:18;;;;;;;14.43;5.72;;;;;;;10.14;100.00;99287.13;5105244;28;20030;-71
2021/03/11 06:58:53;;;;;;;9.65;5.18;;;;;;;10.24;100.00;99286.38;5106473;28;20490;-71
2021/03/11 07:01:18;;;;;;;11.75;5.82;;;;;;;10.23;100.00;99274.81;5093939;28;20077;-72
2021/03/11 07:03:44;;;;;;;15.73;5.63;;;;;;;10.28;100.00;99282.44;5101115;28;20291;-72
2021/03/11 07:06:24;;;;;;;10.80;5.45;;;;;;;10.29;100.00;99276.97;5089281;28;20028;-72
2021/03/11 07:08:50;;;;;;;11.25;5.75;;;;;;;10.34;100.00;99273.88;5100951;28;20035;-72
2021/03/11 07:11:15;;;;;;;11.40;5.05;;;;;;;10.32;100.00;99268.63;5105270;28;20046;-71
2021/03/11 07:13:42;;;;;;;16.05;6.00;;;;;;;10.35;100.00;99262.16;5102398;28;20498;-72
2021/03/11 07:16:15;;;;;;;10.55;5.47;;;;;;;10.28;100.00;99245.75;5101629;28;20040;-72
2021/03/11 07:18:40;;;;;;;;;;;;;;;10.34;100.00;99247.06;5078339;28;20568;-71
2021/03/11 07:21:06;;;;;;;11.45;5.72;;;;;;;10.30;100.00;99248.31;5112948;28;19986;-71
2021/03/11 07:23:31;;;;;;;8.20;5.00;;;;;;;10.33;100.00;99270.34;5103287;28;20028;-72
2021/03/11 07:25:57;;;;;;;9.68;5.18;;;;;;;10.38;100.00;99260.06;5104144;28;20035;-72
2021/03/11 07:28:28;;;;;;;10.07;5.65;;;;;;;10.45;100.00;99268.41;5108640;28;20031;-72
2021/03/11 07:30:58;;;;;;;11.98;4.72;;;;;;;10.52;100.00;99227.53;5104686;28;20144;-72
2021/03/11 07:33:28;;;;;;;9.43;5.13;;;;;;;10.74;100.00;99226.47;5082432;28;20664;-71
2021/03/11 07:35:57;;;;;;;12.13;5.05;;;;;;;11.11;100.00;99242.81;5097968;28;20019;-72
2021/03/11 07:38:30;;;;;;;7.97;4.18;;;;;;;11.79;97.82;99248.31;5098144;28;20032;-71
2021/03/11 07:40:58;;;;;;;7.45;4.40;;;;;;;12.00;95.98;99244.47;5084487;28;20028;-72
2021/03/11 07:43:25;;;;;;;38.95;16.95;;;;;;;12.22;93.24;99253.22;5095678;28;20177;-71
2021/03/11 07:45:53;;;;;;;12.25;4.35;;;;;;;11.73;95.96;99265.81;5102596;28;20144;-72
2021/03/11 07:48:19;;;;;;;8.30;4.53;;;;;;;11.54;97.70;99241.63;5093898;28;20047;-72
2021/03/11 07:50:45;;;;;;;10.30;4.60;;;;;;;11.43;99.41;99241.75;5107466;28;20035;-72
2021/03/11 07:53:11;;;;;;;7.90;4.20;;;;;;;11.35;100.00;99237.09;5103067;28;20046;-71
2021/03/11 07:55:37;;;;;;;7.57;4.18;;;;;;;11.20;100.00;99233.94;5104731;28;20375;-71
2021/03/11 07:58:09;;;;;;;8.20;4.45;;;;;;;11.04;100.00;99230.97;5105220;28;20030;-72
2021/03/11 08:00:35;;;;;;;10.25;5.25;;;;;;;11.04;100.00;99233.66;5105743;28;20164;-72
2021/03/11 08:03:04;;;;;;;11.93;5.15;;;;;;;10.92;100.00;99219.47;5103204;28;20134;-72
2021/03/11 08:05:31;;;;;;;10.45;5.05;;;;;;;10.98;100.00;99218.09;5105295;27;20127;-73
2021/03/11 08:08:19;;;;;;;7.90;4.40;;;;;;;11.09;100.00;99225.16;5114754;27;20055;-72
2021/03/11 08:10:48;;;;;;;11.20;4.80;;;;;;;11.18;100.00;99230.53;5109488;28;20031;-71
2021/03/11 08:13:31;;;;;;;10.15;4.03;;;;;;;11.21;100.00;99211.47;5097642;28;20114;-73
2021/03/11 08:15:57;;;;;;;;;;;;;;;11.24;100.00;99221.06;5100382;28;20053;-72
2021/03/11 08:18:32;;;;;;;11.18;4.25;;;;;;;11.25;100.00;99215.56;5105940;28;19918;-72
2021/03/11 08:20:57;;;;;;;7.90;4.20;;;;;;;11.27;100.00;99208.25;5097551;28;20067;-71
2021/03/11 08:23:35;;;;;;;12.45;4.20;;;;;;;11.45;99.16;99226.34;5106588;27;20055;-72
2021/03/11 08:26:04;;;;;;;11.48;4.00;;;;;;;11.61;98.90;99186.31;5103218;27;20398;-72
2021/03/11 08:28:29;;;;;;;11.55;3.65;;;;;;;11.57;98.01;99195.66;5107454;27;20044;-73
2021/03/11 08:31:03;;;;;;;10.02;3.67;;;;;;;11.56;97.65;99183.22;5109015;28;20034;-73
2021/03/11 08:33:28;;;;;;;9.25;3.45;;;;;;;11.65;96.04;99169.78;5103818;27;20039;-72
2021/03/11 08:35:58;;;;;;;13.27;3.78;;;;;;;11.73;94.50;99180.69;5090064;28;20035;-71
2021/03/11 08:38:23;;;;;;;7.97;2.50;;;;;;;11.81;92.39;99185.34;5108572;28;20023;-71
2021/03/11 08:40:53;;;;;;;9.40;2.10;;;;;;;11.96;91.57;99169.63;5112045;27;20401;-72
2021/03/11 08:43:41;;;;;;;10.10;1.80;;;;;;;12.10;89.93;99180.75;5100382;28;20038;-73
2021/03/11 08:46:13;;;;;;;5.50;1.55;;;;;;;12.24;90.08;99190.19;5103211;28;20027;-72
2021/03/11 08:48:58;;;;;;;8.77;2.03;;;;;;;12.20;89.67;99183.44;5096626;27;20063;-72
2021/03/11 08:51:23;;;;;;;14.48;2.15;;;;;;;12.23;90.53;99179.56;5102359;28;20031;-72
2021/03/11 08:53:55;;;;;;;11.10;1.73;;;;;;;12.46;89.88;99197.94;5106060;27;20033;-72
2021/03/11 08:56:20;;;;;;;10.25;2.05;;;;;;;12.53;88.35;99204.38;5114747;27;20063;-72
2021/03/11 08:59:05;;;;;;;12.52;1.48;;;;;;;12.27;88.44;99181.00;5099455;28;20297;-71
2021/03/11 09:01:38;;;;;;;7.88;1.25;;;;;;;12.13;88.67;99183.16;5100877;28;20156;-72
2021/03/11 09:04:06;;;;;;;13.20;2.20;;;;;;;11.93;89.90;99194.94;5091796;28;20023;-72
2021/03/11 09:06:52;;;;;;;8.32;2.15;;;;;;;11.80;90.11;99196.22;5088697;28;20086;-72
2021/03/11 09:09:31;;;;;;;8.20;1.17;;;;;;;11.71;90.66;99212.22;5099842;27;20124;-73
2021/03/11 09:11:57;;;;;;;7.97;1.55;;;;;;;11.61;93.26;99178.25;5107533;27;20045;-72
2021/03/11 09:14:25;;;;;;;8.63;1.70;;;;;;;11.35;92.73;99194.97;5102988;27;20020;-72
2021/03/11 09:16:50;;;;;;;12.45;1.55;;;;;;;11.31;96.03;99163.97;5110282;27;20355;-73
2021/03/11 09:19:16;;;;;;;16.63;2.60;;;;;;;11.42;97.59;99170.22;5098747;27;20043;-72
2021/03/11 09:21:45;;;;;;;10.15;2.22;;;;;;;11.43;97.70;99207.66;5089609;28;20050;-72
2021/03/11 09:24:20;;;;;;;18.80;1.98;;;;;;;11.36;97.17;99174.28;5103895;28;20052;-72
2021/03/11 09:26:46;;;;;;;12.30;2.00;;;;;;;11.31;96.68;99198.91;5103782;28;20109;-71
2021/03/11 09:29:14;;;;;;;18.25;2.78;;;;;;;11.25;97.32;99191.41;5103948;27;20031;-71
2021/03/11 09:31:40;;;;;;;9.85;1.77;;;;;;;11.21;96.62;99190.00;5101670;27;20074;-71
2021/03/11 09:34:07;;;;;;;17.88;1.85;;;;;;;11.30;95.47;99162.28;5099241;27;20076;-71
2021/03/11 09:36:33;;;;;;;17.73;2.17;;;;;;;11.85;95.46;99154.47;5103270;28;20540;-72
2021/03/11 09:39:06;;;;;;;17.92;1.77;;;;;;;12.46;92.44;99143.25;5102193;28;20023;-72
2021/03/11 09:41:32;;;;;;;17.52;2.22;;;;;;;12.75;86.06;99149.31;5106674;27;20032;-71
2021/03/11 09:44:07;;;;;;;14.00;2.10;;;;;;;13.02;85.60;99161.06;5111136;27;20462;-72
2021/03/11 09:46:33;;;;;;;17.05;2.25;;;;;;;13.06;82.59;99160.59;5098874;27;20533;-71
2021/03/11 09:48:59;;;;;;;14.45;2.35;;;;;;;13.12;82.38;99180.69;5100133;27;20028;-72
2021/03/11 09:51:27;;;;;;;16.08;2.53;;;;;;;13.42;81.49;99164.19;5083926;28;20031;-71
2021/03/11 09:53:56;;;;;;;13.73;1.85;;;;;;;13.45;80.68;99139.66;5104004;27;20043;-72
2021/03/11 09:56:38;;;;;;;21.35;2.83;;;;;;;13.55;80.20;99170.03;5096750;28;21328;-73
2021/03/11 09:59:06;;;;;;;18.85;2.95;;;;;;;13.67;80.41;99168.81;5095939;27;20039;-73
2021/03/11 10:01:35;;;;;;;17.33;3.25;;;;;;;13.86;79.76;99177.72;5095449;28;20036;-72
2021/03/11 10:04:11;;;;;;;18.77;2.72;;;;;;;13.84;76.70;99174.31;5094102;28;20514;-72
2021/03/11 10:06:37;;;;;;;15.52;2.50;;;;;;;13.88;75.15;99165.78;5098569;28;20032;-72
2021/03/11 10:09:03;;;;;;;20.88;3.17;;;;;;;13.92;71.68;99156.34;5099510;28;20024;-72
2021/03/11 10:11:40;;;;;;;18.58;3.13;;;;;;;13.91;71.34;99164.59;5101015;27;20404;-73
2021/03/11 10:14:24;;;;;;;16.75;2.80;;;;;;;14.04;72.29;99183.91;5092940;28;20774;-72
2021/03/11 10:16:52;;;;;;;11.95;2.45;;;;;;;14.09;68.99;99168.09;5091185;28;20044;-74
2021/03/11 10:19:31;;;;;;;18.42;2.72;;;;;;;14.15;67.39;99156.66;5091350;28;20374;-74
2021/03/11 10:21:58;;;;;;;19.67;3.15;;;;;;;14.28;66.46;99173.28;5094659;28;20058;-72
2021/03/11 10:24:42;;;;;;;11.63;2.72;;;;;;;14.31;67.02;99143.28;5085304;28;20032;-72
2021/03/11 10:27:30;;;;;;;11.20;2.10;;;;;;;14.39;64.65;99175.72;5098433;28;20055;-72
2021/03/11 10:30:07;;;;;;;6.03;1.58;;;;;;;14.43;63.17;99174.41;5103455;27;20027;-72
2021/03/11 10:32:37;;;;;;;14.13;2.25;;;;;;;14.49;64.17;99181.88;5079538;28;20032;-72
2021/03/11 10:35:04;;;;;;;17.45;2.15;;;;;;;14.34;62.98;99167.22;5098175;27;20441;-71
2021/03/11 10:37:35;;;;;;;17.02;3.42;;;;;;;14.27;63.87;99186.91;5100442;28;20418;-72
2021/03/11 10:40:04;;;;;;;14.75;2.83;;;;;;;14.09;63.79;99200.47;5102848;27;20059;-71
2021/03/11 10:42:51;;;;;;;10.90;2.03;;;;;;;14.22;65.21;99176.59;5101335;28;20125;-74
2021/03/11 10:45:25;;;;;;;14.27;2.05;;;;;;;14.49;65.09;99173.78;5111836;27;20044;-71
2021/03/11 10:48:03;;;;;;;12.02;2.67;;;;;;;14.41;64.13;99160.22;5090963;28;20637;-72
2021/03/11 10:50:31;;;;;;;13.63;2.33;;;;;;;14.26;63.10;99177.16;5095042;28;20032;-74
2021/03/11 10:52:57;;;;;;;14.73;2.25;;;;;;;14.03;63.71;99160.63;5103912;28;20067;-72
2021/03/11 10:55:44;;;;;;;16.83;2.15;;;;;;;14.14;64.35;99182.78;5099826;28;20039;-72
2021/03/11 10:58:19;;;;;;;17.92;3.50;;;;;;;14.11;63.91;99171.50;5093174;28;20047;-72
2021/03/11 11:00:45;;;;;;;16.63;4.90;;;;;;;14.18;64.19;99176.09;5109885;27;20067;-72
2021/03/11 11:03:10;;;;;;;18.73;2.38;;;;;;;14.37;63.02;99191.25;5098436;28;20077;-71
2021/03/11 11:05:36;;;;;;;24.52;3.85;;;;;;;14.47;63.89;99177.63;5098685;28;20490;-72
2021/03/11 11:08:01;;;;;;;13.70;2.15;;;;;;;14.48;61.73;99196.38;5095509;28;20516;-71
2021/03/11 11:10:32;;;;;;;18.67;2.50;;;;;;;14.39;61.48;99183.81;5099162;28;20543;-73
2021/03/11 11:12:57;;;;;;;16.02;2.40;;;;;;;14.42;59.98;99210.50;5098582;28;20042;-72
2021/03/11 11:15:26;;;;;;;11.85;2.10;;;;;;;14.52;58.07;99197.72;5099754;28;20024;-71
2021/03/11 11:17:52;;;;;;;6.88;1.70;;;;;;;14.51;56.98;99208.69;5114701;28;20377;-71
2021/03/11 11:20:18;;;;;;;13.70;3.17;;;;;;;14.54;58.53;99200.28;5101096;28;20021;-72
2021/03/11 11:22:44;;;;;;;16.45;2.88;;;;;;;14.56;57.69;99209.06;5106054;28;20470;-73
2021/03/11 11:25:11;;;;;;;13.77;2.35;;;;;;;14.43;57.15;99219.47;5109227;28;20024;-71
2021/03/11 11:27:37;;;;;;;13.23;2.00;;;;;;;14.47;56.88;99208.16;5105132;28;20483;-72
2021/03/11 11:30:06;;;;;;;15.77;2.58;;;;;;;14.27;56.43;99230.09;5102865;28;20104;-72
2021/03/11 11:32:31;;;;;;;18.63;2.03;;;;;;;14.29;56.57;99218.16;5094371;28;20038;-72
2021/03/11 11:34:57;;;;;;;19.38;2.53;;;;;;;14.28;55.56;99221.84;5095661;28;20035;-71